Time,TemperatureF,DewpointF,PressureIn,WindDirection,WindDirectionDegrees,WindSpeedMPH,WindSpeedGustMPH,Humidity,HourlyPrecipIn,Conditions,Clouds,dailyrainin,SolarRadiationWatts/m^2,SoftwareType,DateUTC
2013-01-02 00:00:00,27.6,14.8,29.77,NNE,32,1.0,2.0,58,0.00,,,0.00,0,WeatherCatV1.12B45,2013-01-02 05:00:00,
2013-01-02 00:05:00,27.5,14.7,29.77,NW,305,2.0,2.0,58,0.00,,,0.00,0,WeatherCatV1.12B45,2013-01-02 05:05:00,
2013-01-02 00:10:00,27.4,15.0,29.77,NW,305,0.0,1.0,59,0.00,,,0.00,0,WeatherCatV1.12B45,2013-01-02 05:10:00,
2013-01-02 00:15:00,27.3,14.5,29.77,NNW,336,1.0,1.0,58,0.00,,,0.00,0,WeatherCatV1.12B45,2013-01-02 05:15:00,
2013-01-02 00:20:00,27.3,14.5,29.76,NW,326,2.0,5.0,58,0.00,,,0.00,0,WeatherCatV1.12B45,2013-01-02 05:20:00,
2013-01-02 00:25:00,27.2,14.8,29.76,North,5,3.0,3.0,59,0.00,,,0.00,0,WeatherCatV1.12B45,2013-01-02 05:25:00,
2013-01-02 00:30:00,27.1,14.7,29.76,NNE,15,0.0,2.0,59,0.00,,,0.00,0,WeatherCatV1.12B45,2013-01-02 05:30:00,
2013-01-02 00:35:00,27.0,15.0,29.75,North,5,0.0,2.0,60,0.00,,,0.00,0,WeatherCatV1.12B45,2013-01-02 05:35:00,
2013-01-02 00:40:00,27.0,15.0,29.76,WNW,282,0.0,3.0,60,0.00,,,0.00,0,WeatherCatV1.12B45,2013-01-02 05:40:00,
2013-01-02 00:45:00,26.9,14.9,29.75,WNW,286,0.0,1.0,60,0.00,,,0.00,0,WeatherCatV1.12B45,2013-01-02 05:45:00,
2013-01-02 00:50:00,26.9,14.9,29.75,WNW,288,0.0,3.0,60,0.00,,,0.00,0,WeatherCatV1.12B45,2013-01-02 05:50:00,
2013-01-02 00:55:00,26.8,14.8,29.76,NNE,21,0.0,2.0,60,0.00,,,0.00,0,WeatherCatV1.12B45,2013-01-02 05:55:00,
2013-01-02 01:00:00,26.7,14.7,29.76,NNW,347,0.0,3.0,60,0.00,,,0.00,0,WeatherCatV1.12B45,2013-01-02 06:00:00,
2013-01-02 01:05:00,26.7,15.1,29.75,West,273,3.0,4.0,61,0.00,,,0.00,0,WeatherCatV1.12B45,2013-01-02 06:05:00,
2013-01-02 01:10:00,26.6,15.0,29.75,WNW,302,1.0,3.0,61,0.00,,,0.00,0,WeatherCatV1.12B45,2013-01-02 06:10:00,
2013-01-02 01:15:00,26.6,15.4,29.75,NE,37,1.0,3.0,62,0.00,,,0.00,0,WeatherCatV1.12B45,2013-01-02 06:15:00,
2013-01-02 01:20:00,26.5,14.9,29.76,NNW,333,1.0,7.0,61,0.00,,,0.00,0,WeatherCatV1.12B45,2013-01-02 06:20:00,
2013-01-02 01:25:00,26.5,15.3,29.76,West,275,4.0,4.0,62,0.00,,,0.00,0,WeatherCatV1.12B45,2013-01-02 06:25:00,
2013-01-02 01:30:00,26.4,15.2,29.76,NNW,345,3.0,4.0,62,0.00,,,0.00,0,WeatherCatV1.12B45,2013-01-02 06:30:00,
2013-01-02 01:35:00,26.3,15.1,29.77,NW,313,0.0,4.0,62,0.00,,,0.00,0,WeatherCatV1.12B45,2013-01-02 06:35:00,
2013-01-02 01:40:00,26.3,15.1,29.75,NNW,334,0.0,4.0,62,0.00,,,0.00,0,WeatherCatV1.12B45,2013-01-02 06:40:00,
2013-01-02 01:45:00,26.2,15.0,29.75,North,355,1.0,6.0,62,0.00,,,0.00,0,WeatherCatV1.12B45,2013-01-02 06:45:00,
2013-01-02 01:50:00,26.1,14.9,29.76,NNW,340,2.0,5.0,62,0.00,,,0.00,0,WeatherCatV1.12B45,2013-01-02 06:50:00,
2013-01-02 01:55:00,26.1,15.3,29.76,NNW,333,1.0,4.0,63,0.00,,,0.00,0,WeatherCatV1.12B45,2013-01-02 06:55:00,
2013-01-02 02:00:00,26.1,15.3,29.76,NW,313,4.0,4.0,63,0.00,,,0.00,0,WeatherCatV1.12B45,2013-01-02 07:00:00,
2013-01-02 02:05:00,26.0,15.2,29.75,NNW,346,1.0,2.0,63,0.00,,,0.00,0,WeatherCatV1.12B45,2013-01-02 07:05:00,
2013-01-02 02:10:00,25.9,15.1,29.75,NNW,328,0.0,2.0,63,0.00,,,0.00,0,WeatherCatV1.12B45,2013-01-02 07:10:00,
2013-01-02 02:15:00,25.9,15.1,29.75,NNE,15,1.0,2.0,63,0.00,,,0.00,0,WeatherCatV1.12B45,2013-01-02 07:15:00,
2013-01-02 02:20:00,25.8,15.0,29.76,NNW,348,1.0,4.0,63,0.00,,,0.00,0,WeatherCatV1.12B45,2013-01-02 07:20:00,
2013-01-02 02:25:00,25.7,14.9,29.75,NNE,17,0.0,4.0,63,0.00,,,0.00,0,WeatherCatV1.12B45,2013-01-02 07:25:00,
2013-01-02 02:30:00,25.7,14.9,29.76,NW,320,8.0,8.0,63,0.00,,,0.00,0,WeatherCatV1.12B45,2013-01-02 07:30:00,
2013-01-02 02:35:00,25.6,15.1,29.76,North,0,2.0,4.0,64,0.00,,,0.00,0,WeatherCatV1.12B45,2013-01-02 07:35:00,
2013-01-02 02:40:00,25.5,15.0,29.77,NE,42,5.0,5.0,64,0.00,,,0.00,0,WeatherCatV1.12B45,2013-01-02 07:40:00,
2013-01-02 02:45:00,25.4,14.9,29.77,WNW,295,2.0,4.0,64,0.00,,,0.00,0,WeatherCatV1.12B45,2013-01-02 07:45:00,
2013-01-02 02:50:00,25.3,14.9,29.77,NNW,340,2.0,5.0,64,0.00,,,0.00,0,WeatherCatV1.12B45,2013-01-02 07:50:00,
2013-01-02 02:55:00,25.3,14.5,29.77,NNW,330,4.0,5.0,63,0.00,,,0.00,0,WeatherCatV1.12B45,2013-01-02 07:55:00,
2013-01-02 03:00:00,25.2,14.4,29.77,WNW,290,0.0,3.0,63,0.00,,,0.00,0,WeatherCatV1.12B45,2013-01-02 08:00:00,
2013-01-02 03:05:00,25.2,14.8,29.77,North,355,5.0,5.0,64,0.00,,,0.00,0,WeatherCatV1.12B45,2013-01-02 08:05:00,
2013-01-02 03:10:00,25.1,14.3,29.77,North,5,1.0,3.0,63,0.00,,,0.00,0,WeatherCatV1.12B45,2013-01-02 08:10:00,
2013-01-02 03:15:00,25.0,14.6,29.76,NNE,15,3.0,5.0,64,0.00,,,0.00,0,WeatherCatV1.12B45,2013-01-02 08:15:00,
2013-01-02 03:20:00,24.9,14.5,29.77,West,271,2.0,3.0,64,0.00,,,0.00,0,WeatherCatV1.12B45,2013-01-02 08:20:00,
2013-01-02 03:25:00,24.9,14.1,29.77,North,0,1.0,3.0,63,0.00,,,0.00,0,WeatherCatV1.12B45,2013-01-02 08:25:00,
2013-01-02 03:30:00,24.8,14.4,29.77,NW,321,0.0,7.0,64,0.00,,,0.00,0,WeatherCatV1.12B45,2013-01-02 08:30:00,
2013-01-02 03:35:00,24.8,14.4,29.77,North,0,0.0,1.0,64,0.00,,,0.00,0,WeatherCatV1.12B45,2013-01-02 08:35:00,
2013-01-02 03:40:00,24.7,14.3,29.76,North,0,3.0,5.0,64,0.00,,,0.00,0,WeatherCatV1.12B45,2013-01-02 08:40:00,
2013-01-02 03:45:00,24.6,14.2,29.76,NW,315,2.0,4.0,64,0.00,,,0.00,0,WeatherCatV1.12B45,2013-01-02 08:45:00,
2013-01-02 03:50:00,24.5,14.1,29.77,NNE,32,4.0,7.0,64,0.00,,,0.00,0,WeatherCatV1.12B45,2013-01-02 08:50:00,
2013-01-02 03:55:00,24.5,14.1,29.77,NE,42,4.0,9.0,64,0.00,,,0.00,0,WeatherCatV1.12B45,2013-01-02 08:55:00,
2013-01-02 04:00:00,24.4,14.0,29.76,NNW,346,4.0,8.0,64,0.00,,,0.00,0,WeatherCatV1.12B45,2013-01-02 09:00:00,
2013-01-02 04:05:00,24.3,13.9,29.76,NW,311,3.0,8.0,64,0.00,,,0.00,0,WeatherCatV1.12B45,2013-01-02 09:05:00,
2013-01-02 04:10:00,24.3,13.5,29.76,North,355,5.0,9.0,63,0.00,,,0.00,0,WeatherCatV1.12B45,2013-01-02 09:10:00,
2013-01-02 04:15:00,24.2,13.4,29.75,WNW,284,6.0,7.0,63,0.00,,,0.00,0,WeatherCatV1.12B45,2013-01-02 09:15:00,
2013-01-02 04:20:00,24.2,13.8,29.76,NW,320,2.0,2.0,64,0.00,,,0.00,0,WeatherCatV1.12B45,2013-01-02 09:20:00,
2013-01-02 04:25:00,24.2,13.8,29.76,NNE,27,1.0,6.0,64,0.00,,,0.00,0,WeatherCatV1.12B45,2013-01-02 09:25:00,
2013-01-02 04:30:00,24.2,13.4,29.76,North,350,3.0,9.0,63,0.00,,,0.00,0,WeatherCatV1.12B45,2013-01-02 09:30:00,
2013-01-02 04:35:00,24.2,13.4,29.76,NW,323,3.0,3.0,63,0.00,,,0.00,0,WeatherCatV1.12B45,2013-01-02 09:35:00,
2013-01-02 04:40:00,24.2,13.4,29.76,NW,306,2.0,5.0,63,0.00,,,0.00,0,WeatherCatV1.12B45,2013-01-02 09:40:00,
2013-01-02 04:45:00,24.2,13.4,29.76,NNW,327,2.0,4.0,63,0.00,,,0.00,0,WeatherCatV1.12B45,2013-01-02 09:45:00,
2013-01-02 04:50:00,24.2,13.1,29.76,North,355,3.0,5.0,62,0.00,,,0.00,0,WeatherCatV1.12B45,2013-01-02 09:50:00,
2013-01-02 04:55:00,24.2,13.4,29.76,North,5,4.0,6.0,63,0.00,,,0.00,0,WeatherCatV1.12B45,2013-01-02 09:55:00,
2013-01-02 05:00:00,24.2,13.1,29.76,NNW,344,0.0,1.0,62,0.00,,,0.00,0,WeatherCatV1.12B45,2013-01-02 10:00:00,
2013-01-02 05:05:00,24.2,13.1,29.76,NNW,340,1.0,2.0,62,0.00,,,0.00,0,WeatherCatV1.12B45,2013-01-02 10:05:00,
2013-01-02 05:10:00,24.2,13.4,29.76,North,9,0.0,3.0,63,0.00,,,0.00,0,WeatherCatV1.12B45,2013-01-02 10:10:00,
2013-01-02 05:15:00,24.2,13.1,29.76,NNW,347,0.0,2.0,62,0.00,,,0.00,0,WeatherCatV1.12B45,2013-01-02 10:15:00,
2013-01-02 05:20:00,24.2,13.4,29.76,North,355,0.0,1.0,63,0.00,,,0.00,0,WeatherCatV1.12B45,2013-01-02 10:20:00,
2013-01-02 05:25:00,24.2,13.1,29.76,NNW,330,2.0,6.0,62,0.00,,,0.00,0,WeatherCatV1.12B45,2013-01-02 10:25:00,
2013-01-02 05:30:00,24.2,13.4,29.76,NNW,345,0.0,2.0,63,0.00,,,0.00,0,WeatherCatV1.12B45,2013-01-02 10:30:00,
2013-01-02 05:35:00,24.2,13.4,29.76,NNW,339,0.0,2.0,63,0.00,,,0.00,0,WeatherCatV1.12B45,2013-01-02 10:35:00,
2013-01-02 05:40:00,24.2,13.4,29.76,NNW,339,0.0,1.0,63,0.00,,,0.00,0,WeatherCatV1.12B45,2013-01-02 10:40:00,
2013-01-02 05:45:00,24.1,13.4,29.77,WSW,258,0.0,3.0,63,0.00,,,0.00,0,WeatherCatV1.12B45,2013-01-02 10:45:00,
2013-01-02 05:50:00,24.1,13.4,29.77,West,275,0.0,0.0,63,0.00,,,0.00,0,WeatherCatV1.12B45,2013-01-02 10:50:00,
2013-01-02 05:55:00,24.0,13.3,29.77,West,275,0.0,1.0,63,0.00,,,0.00,0,WeatherCatV1.12B45,2013-01-02 10:55:00,
2013-01-02 06:00:00,24.0,13.3,29.77,West,275,0.0,0.0,63,0.00,,,0.00,0,WeatherCatV1.12B45,2013-01-02 11:00:00,
2013-01-02 06:05:00,24.0,13.3,29.77,West,275,0.0,0.0,63,0.00,,,0.00,0,WeatherCatV1.12B45,2013-01-02 11:05:00,
2013-01-02 06:10:00,24.0,13.3,29.77,West,275,0.0,0.0,63,0.00,,,0.00,0,WeatherCatV1.12B45,2013-01-02 11:10:00,
2013-01-02 06:15:00,23.9,13.2,29.77,West,275,0.0,2.0,63,0.00,,,0.00,0,WeatherCatV1.12B45,2013-01-02 11:15:00,
2013-01-02 06:20:00,23.9,13.2,29.78,NNW,344,0.0,1.0,63,0.00,,,0.00,0,WeatherCatV1.12B45,2013-01-02 11:20:00,
2013-01-02 06:25:00,23.9,13.2,29.78,NNW,339,0.0,0.0,63,0.00,,,0.00,0,WeatherCatV1.12B45,2013-01-02 11:25:00,
2013-01-02 06:30:00,23.8,13.4,29.77,NNW,339,0.0,0.0,64,0.00,,,0.00,0,WeatherCatV1.12B45,2013-01-02 11:30:00,
2013-01-02 06:35:00,23.8,13.1,29.77,NNW,339,1.0,2.0,63,0.00,,,0.00,0,WeatherCatV1.12B45,2013-01-02 11:35:00,
2013-01-02 06:40:00,23.8,13.1,29.77,NNW,339,0.0,1.0,63,0.00,,,0.00,0,WeatherCatV1.12B45,2013-01-02 11:40:00,
2013-01-02 06:45:00,23.8,13.1,29.77,NNW,339,0.0,0.0,63,0.00,,,0.00,0,WeatherCatV1.12B45,2013-01-02 11:45:00,
2013-01-02 06:50:00,23.8,13.4,29.77,NNW,339,0.0,1.0,64,0.00,,,0.00,0,WeatherCatV1.12B45,2013-01-02 11:50:00,
2013-01-02 06:55:00,23.7,13.3,29.78,NNW,339,0.0,1.0,64,0.00,,,0.00,0,WeatherCatV1.12B45,2013-01-02 11:55:00,
2013-01-02 07:00:00,23.7,13.3,29.78,NNW,339,0.0,0.0,64,0.00,,,0.00,0,WeatherCatV1.12B45,2013-01-02 12:00:00,
2013-01-02 07:05:00,23.6,13.6,29.78,NNW,339,0.0,0.0,65,0.00,,,0.00,0,WeatherCatV1.12B45,2013-01-02 12:05:00,
2013-01-02 07:10:00,23.5,13.1,29.78,NNW,339,0.0,1.0,64,0.00,,,0.00,0,WeatherCatV1.12B45,2013-01-02 12:10:00,
2013-01-02 07:15:00,23.5,13.5,29.78,NNW,339,0.0,0.0,65,0.00,,,0.00,0,WeatherCatV1.12B45,2013-01-02 12:15:00,
2013-01-02 07:20:00,23.4,13.4,29.78,NNW,339,0.0,0.0,65,0.00,,,0.00,0,WeatherCatV1.12B45,2013-01-02 12:20:00,
2013-01-02 07:25:00,23.3,13.3,29.79,NNW,346,2.0,2.0,65,0.00,,,0.00,0,WeatherCatV1.12B45,2013-01-02 12:25:00,
2013-01-02 07:30:00,23.2,13.2,29.79,West,281,0.0,3.0,65,0.00,,,0.00,0,WeatherCatV1.12B45,2013-01-02 12:30:00,
2013-01-02 07:35:00,23.1,13.1,29.78,West,271,0.0,0.0,65,0.00,,,0.00,7,WeatherCatV1.12B45,2013-01-02 12:35:00,
2013-01-02 07:40:00,23.1,13.1,29.79,West,271,0.0,0.0,65,0.00,,,0.00,11,WeatherCatV1.12B45,2013-01-02 12:40:00,
2013-01-02 07:45:00,23.1,13.5,29.79,West,281,0.0,0.0,66,0.00,,,0.00,14,WeatherCatV1.12B45,2013-01-02 12:45:00,
2013-01-02 07:50:00,23.1,13.5,29.79,WSW,245,0.0,1.0,66,0.00,,,0.00,18,WeatherCatV1.12B45,2013-01-02 12:50:00,
2013-01-02 07:55:00,23.1,13.5,29.79,WSW,245,0.0,0.0,66,0.00,,,0.00,19,WeatherCatV1.12B45,2013-01-02 12:55:00,
2013-01-02 08:00:00,23.1,13.5,29.79,WSW,246,1.0,2.0,66,0.00,,,0.00,23,WeatherCatV1.12B45,2013-01-02 13:00:00,
2013-01-02 08:05:00,23.1,13.5,29.79,WSW,246,1.0,1.0,66,0.00,,,0.00,28,WeatherCatV1.12B45,2013-01-02 13:05:00,
2013-01-02 08:10:00,23.2,13.6,29.80,WNW,295,0.0,2.0,66,0.00,,,0.00,35,WeatherCatV1.12B45,2013-01-02 13:10:00,
2013-01-02 08:15:00,23.3,13.6,29.80,WNW,294,2.0,2.0,66,0.00,,,0.00,39,WeatherCatV1.12B45,2013-01-02 13:15:00,
2013-01-02 08:20:00,23.3,13.6,29.80,WNW,283,0.0,1.0,66,0.00,,,0.00,42,WeatherCatV1.12B45,2013-01-02 13:20:00,
2013-01-02 08:25:00,23.4,14.1,29.80,WNW,283,0.0,1.0,67,0.00,,,0.00,46,WeatherCatV1.12B45,2013-01-02 13:25:00,
2013-01-02 08:30:00,23.5,14.2,29.81,WNW,294,1.0,2.0,67,0.00,,,0.00,51,WeatherCatV1.12B45,2013-01-02 13:30:00,
2013-01-02 08:35:00,23.6,13.9,29.80,WNW,293,0.0,1.0,66,0.00,,,0.00,53,WeatherCatV1.12B45,2013-01-02 13:35:00,
2013-01-02 08:40:00,23.7,14.0,29.81,West,274,0.0,3.0,66,0.00,,,0.00,62,WeatherCatV1.12B45,2013-01-02 13:40:00,
2013-01-02 08:45:00,23.8,14.1,29.81,NW,316,1.0,2.0,66,0.00,,,0.00,69,WeatherCatV1.12B45,2013-01-02 13:45:00,
2013-01-02 08:50:00,23.9,14.2,29.82,WNW,298,1.0,3.0,66,0.00,,,0.00,72,WeatherCatV1.12B45,2013-01-02 13:50:00,
2013-01-02 08:55:00,24.2,14.2,29.82,WSW,258,3.0,3.0,65,0.00,,,0.00,81,WeatherCatV1.12B45,2013-01-02 13:55:00,
2013-01-02 09:00:00,24.4,14.7,29.82,WSW,251,1.0,3.0,66,0.00,,,0.00,86,WeatherCatV1.12B45,2013-01-02 14:00:00,
2013-01-02 09:05:00,24.6,14.5,29.82,WSW,247,0.0,3.0,65,0.00,,,0.00,91,WeatherCatV1.12B45,2013-01-02 14:05:00,
2013-01-02 09:10:00,24.7,14.6,29.82,WNW,290,1.0,6.0,65,0.00,,,0.00,95,WeatherCatV1.12B45,2013-01-02 14:10:00,
2013-01-02 09:15:00,25.0,14.9,29.82,West,269,1.0,1.0,65,0.00,,,0.00,104,WeatherCatV1.12B45,2013-01-02 14:15:00,
2013-01-02 09:20:00,25.2,15.1,29.83,West,277,0.0,1.0,65,0.00,,,0.00,98,WeatherCatV1.12B45,2013-01-02 14:20:00,
2013-01-02 09:25:00,25.4,15.3,29.82,West,263,0.0,2.0,65,0.00,,,0.00,104,WeatherCatV1.12B45,2013-01-02 14:25:00,
2013-01-02 09:30:00,25.7,15.2,29.83,West,263,0.0,1.0,64,0.00,,,0.00,107,WeatherCatV1.12B45,2013-01-02 14:30:00,
2013-01-02 09:35:00,25.9,15.4,29.82,SW,223,0.0,4.0,64,0.00,,,0.00,111,WeatherCatV1.12B45,2013-01-02 14:35:00,
2013-01-02 09:40:00,26.1,15.6,29.82,South,188,2.0,2.0,64,0.00,,,0.00,128,WeatherCatV1.12B45,2013-01-02 14:40:00,
2013-01-02 09:45:00,26.2,15.3,29.82,WSW,242,2.0,5.0,63,0.00,,,0.00,121,WeatherCatV1.12B45,2013-01-02 14:45:00,
2013-01-02 09:50:00,26.3,15.4,29.83,West,260,4.0,4.0,63,0.00,,,0.00,121,WeatherCatV1.12B45,2013-01-02 14:50:00,
2013-01-02 09:55:00,26.4,15.2,29.83,WNW,296,3.0,5.0,62,0.00,,,0.00,144,WeatherCatV1.12B45,2013-01-02 14:55:00,
2013-01-02 10:00:00,26.5,15.6,29.83,SW,235,0.0,3.0,63,0.00,,,0.00,148,WeatherCatV1.12B45,2013-01-02 15:00:00,
2013-01-02 10:05:00,26.7,15.5,29.83,WSW,255,0.0,5.0,62,0.00,,,0.00,139,WeatherCatV1.12B45,2013-01-02 15:05:00,
2013-01-02 10:10:00,26.8,15.6,29.83,WSW,247,1.0,5.0,62,0.00,,,0.00,160,WeatherCatV1.12B45,2013-01-02 15:10:00,
2013-01-02 10:15:00,26.9,15.6,29.83,NNW,331,2.0,6.0,62,0.00,,,0.00,142,WeatherCatV1.12B45,2013-01-02 15:15:00,
2013-01-02 10:20:00,26.9,15.3,29.83,WSW,239,1.0,4.0,61,0.00,,,0.00,163,WeatherCatV1.12B45,2013-01-02 15:20:00,
2013-01-02 10:25:00,27.1,15.8,29.83,West,267,2.0,3.0,62,0.00,,,0.00,148,WeatherCatV1.12B45,2013-01-02 15:25:00,
2013-01-02 10:30:00,27.3,15.7,29.83,West,281,1.0,3.0,61,0.00,,,0.00,142,WeatherCatV1.12B45,2013-01-02 15:30:00,
2013-01-02 10:35:00,27.5,16.2,29.83,West,271,0.0,5.0,62,0.00,,,0.00,190,WeatherCatV1.12B45,2013-01-02 15:35:00,
2013-01-02 10:40:00,27.8,16.1,29.82,WSW,238,0.0,6.0,61,0.00,,,0.00,190,WeatherCatV1.12B45,2013-01-02 15:40:00,
2013-01-02 10:45:00,28.0,16.3,29.82,SW,220,0.0,3.0,61,0.00,,,0.00,192,WeatherCatV1.12B45,2013-01-02 15:45:00,
2013-01-02 10:50:00,28.1,16.4,29.82,West,275,0.0,3.0,61,0.00,,,0.00,246,WeatherCatV1.12B45,2013-01-02 15:50:00,
2013-01-02 10:55:00,28.3,16.6,29.83,WSW,247,2.0,3.0,61,0.00,,,0.00,250,WeatherCatV1.12B45,2013-01-02 15:55:00,
2013-01-02 11:00:00,28.4,16.3,29.82,WNW,290,2.0,5.0,60,0.00,,,0.00,172,WeatherCatV1.12B45,2013-01-02 16:00:00,
2013-01-02 11:05:00,28.5,16.4,29.82,WNW,294,2.0,5.0,60,0.00,,,0.00,172,WeatherCatV1.12B45,2013-01-02 16:05:00,
2013-01-02 11:10:00,28.5,16.4,29.82,NNW,327,1.0,3.0,60,0.00,,,0.00,171,WeatherCatV1.12B45,2013-01-02 16:10:00,
2013-01-02 11:15:00,28.7,17.0,29.81,SW,231,0.0,7.0,61,0.00,,,0.00,179,WeatherCatV1.12B45,2013-01-02 16:15:00,
2013-01-02 11:20:00,29.0,16.5,29.81,West,269,2.0,5.0,59,0.00,,,0.00,178,WeatherCatV1.12B45,2013-01-02 16:20:00,
2013-01-02 11:25:00,29.1,16.2,29.81,NW,314,0.0,2.0,58,0.00,,,0.00,169,WeatherCatV1.12B45,2013-01-02 16:25:00,
2013-01-02 11:30:00,29.3,16.4,29.81,West,281,1.0,6.0,58,0.00,,,0.00,251,WeatherCatV1.12B45,2013-01-02 16:30:00,
2013-01-02 11:35:00,29.7,16.8,29.80,WSW,251,0.0,5.0,58,0.00,,,0.00,213,WeatherCatV1.12B45,2013-01-02 16:35:00,
2013-01-02 11:40:00,30.0,16.6,29.81,WNW,302,5.0,5.0,57,0.00,,,0.00,223,WeatherCatV1.12B45,2013-01-02 16:40:00,
2013-01-02 11:45:00,30.1,16.7,29.80,West,273,2.0,3.0,57,0.00,,,0.00,255,WeatherCatV1.12B45,2013-01-02 16:45:00,
2013-01-02 11:50:00,30.1,16.7,29.80,WNW,303,1.0,5.0,57,0.00,,,0.00,174,WeatherCatV1.12B45,2013-01-02 16:50:00,
2013-01-02 11:55:00,30.1,16.7,29.80,NW,311,7.0,10.0,57,0.00,,,0.00,185,WeatherCatV1.12B45,2013-01-02 16:55:00,
2013-01-02 12:00:00,29.9,16.1,29.80,North,355,4.0,8.0,56,0.00,,,0.00,192,WeatherCatV1.12B45,2013-01-02 17:00:00,
2013-01-02 12:05:00,29.9,16.5,29.79,North,0,4.0,7.0,57,0.00,,,0.00,221,WeatherCatV1.12B45,2013-01-02 17:05:00,
2013-01-02 12:10:00,30.1,16.7,29.79,NNW,335,8.0,8.0,57,0.00,,,0.00,251,WeatherCatV1.12B45,2013-01-02 17:10:00,
2013-01-02 12:15:00,30.5,17.1,29.79,SW,235,3.0,9.0,57,0.00,,,0.00,320,WeatherCatV1.12B45,2013-01-02 17:15:00,
2013-01-02 12:20:00,30.8,17.0,29.79,West,269,2.0,7.0,56,0.00,,,0.00,218,WeatherCatV1.12B45,2013-01-02 17:20:00,
2013-01-02 12:25:00,30.9,17.1,29.79,WSW,240,5.0,8.0,56,0.00,,,0.00,276,WeatherCatV1.12B45,2013-01-02 17:25:00,
2013-01-02 12:30:00,30.7,16.9,29.79,NNW,335,4.0,8.0,56,0.00,,,0.00,192,WeatherCatV1.12B45,2013-01-02 17:30:00,
2013-01-02 12:35:00,30.7,16.9,29.78,West,266,0.0,2.0,56,0.00,,,0.00,218,WeatherCatV1.12B45,2013-01-02 17:35:00,
2013-01-02 12:40:00,30.7,16.9,29.78,WNW,298,2.0,3.0,56,0.00,,,0.00,160,WeatherCatV1.12B45,2013-01-02 17:40:00,
2013-01-02 12:45:00,30.7,16.9,29.78,WNW,297,0.0,10.0,56,0.00,,,0.00,197,WeatherCatV1.12B45,2013-01-02 17:45:00,
2013-01-02 12:51:00,30.8,17.0,29.78,North,350,1.0,9.0,56,0.00,,,0.00,397,WeatherCatV1.12B45,2013-01-02 17:51:00,
2013-01-02 12:56:00,30.7,16.5,29.78,NW,326,1.0,9.0,55,0.00,,,0.00,323,WeatherCatV1.12B45,2013-01-02 17:56:00,
2013-01-02 13:01:00,30.9,17.1,29.78,NW,325,3.0,4.0,56,0.00,,,0.00,220,WeatherCatV1.12B45,2013-01-02 18:01:00,
2013-01-02 13:06:00,31.2,17.8,29.78,West,279,0.0,2.0,57,0.00,,,0.00,290,WeatherCatV1.12B45,2013-01-02 18:06:00,
2013-01-02 13:11:00,31.9,18.0,29.78,WNW,290,7.0,8.0,56,0.00,,,0.00,290,WeatherCatV1.12B45,2013-01-02 18:11:00,
2013-01-02 13:16:00,31.5,17.2,29.78,NW,304,5.0,8.0,55,0.00,,,0.00,301,WeatherCatV1.12B45,2013-01-02 18:16:00,
2013-01-02 13:21:00,31.5,17.2,29.79,North,355,5.0,5.0,55,0.00,,,0.00,306,WeatherCatV1.12B45,2013-01-02 18:21:00,
2013-01-02 13:26:00,31.6,16.9,29.78,WNW,284,2.0,6.0,54,0.00,,,0.00,330,WeatherCatV1.12B45,2013-01-02 18:26:00,
2013-01-02 13:31:00,32.2,17.9,29.79,SW,223,0.0,5.0,55,0.00,,,0.00,355,WeatherCatV1.12B45,2013-01-02 18:31:00,
2013-01-02 13:36:00,32.0,17.3,29.78,SSW,201,2.0,4.0,54,0.00,,,0.00,309,WeatherCatV1.12B45,2013-01-02 18:36:00,
2013-01-02 13:41:00,32.3,17.5,29.79,NE,36,3.0,4.0,54,0.00,,,0.00,364,WeatherCatV1.12B45,2013-01-02 18:41:00,
2013-01-02 13:46:00,32.6,17.4,29.79,WNW,298,4.0,5.0,53,0.00,,,0.00,376,WeatherCatV1.12B45,2013-01-02 18:46:00,
2013-01-02 13:51:00,32.6,17.4,29.79,West,262,3.0,5.0,53,0.00,,,0.00,339,WeatherCatV1.12B45,2013-01-02 18:51:00,
2013-01-02 13:56:00,32.9,17.2,29.80,NW,317,4.0,9.0,52,0.00,,,0.00,343,WeatherCatV1.12B45,2013-01-02 18:56:00,
2013-01-02 14:01:00,32.7,16.6,29.79,North,350,2.0,10.0,51,0.00,,,0.00,411,WeatherCatV1.12B45,2013-01-02 19:01:00,
2013-01-02 14:06:00,33.0,17.3,29.79,WNW,302,4.0,7.0,52,0.00,,,0.00,341,WeatherCatV1.12B45,2013-01-02 19:06:00,
2013-01-02 14:11:00,32.9,16.8,29.80,West,259,6.0,9.0,51,0.00,,,0.00,329,WeatherCatV1.12B45,2013-01-02 19:11:00,
2013-01-02 14:16:00,32.8,16.7,29.79,North,0,6.0,10.0,51,0.00,,,0.00,338,WeatherCatV1.12B45,2013-01-02 19:16:00,
2013-01-02 14:21:00,32.9,17.2,29.79,NW,306,4.0,4.0,52,0.00,,,0.00,214,WeatherCatV1.12B45,2013-01-02 19:21:00,
2013-01-02 14:26:00,33.2,17.1,29.79,WSW,255,1.0,3.0,51,0.00,,,0.00,155,WeatherCatV1.12B45,2013-01-02 19:26:00,
2013-01-02 14:31:00,33.5,16.9,29.79,North,0,0.0,5.0,50,0.00,,,0.00,148,WeatherCatV1.12B45,2013-01-02 19:31:00,
2013-01-02 14:36:00,33.4,17.2,29.80,NW,317,4.0,5.0,51,0.00,,,0.00,120,WeatherCatV1.12B45,2013-01-02 19:36:00,
2013-01-02 14:41:00,33.7,16.6,29.80,WNW,294,3.0,9.0,49,0.00,,,0.00,204,WeatherCatV1.12B45,2013-01-02 19:41:00,
2013-01-02 14:46:00,33.5,16.9,29.80,WNW,288,4.0,8.0,50,0.00,,,0.00,167,WeatherCatV1.12B45,2013-01-02 19:46:00,
2013-01-02 14:51:00,33.6,17.0,29.79,North,355,2.0,4.0,50,0.00,,,0.00,125,WeatherCatV1.12B45,2013-01-02 19:51:00,
2013-01-02 14:56:00,33.6,16.5,29.80,WNW,284,3.0,6.0,49,0.00,,,0.00,142,WeatherCatV1.12B45,2013-01-02 19:56:00,
2013-01-02 15:01:00,33.3,16.7,29.81,WNW,297,0.0,6.0,50,0.00,,,0.00,100,WeatherCatV1.12B45,2013-01-02 20:01:00,
2013-01-02 15:06:00,33.3,16.7,29.80,NW,322,3.0,8.0,50,0.00,,,0.00,116,WeatherCatV1.12B45,2013-01-02 20:06:00,
2013-01-02 15:11:00,33.3,16.7,29.80,WNW,292,9.0,10.0,50,0.00,,,0.00,98,WeatherCatV1.12B45,2013-01-02 20:11:00,
2013-01-02 15:16:00,33.3,16.7,29.80,NW,326,1.0,5.0,50,0.00,,,0.00,91,WeatherCatV1.12B45,2013-01-02 20:16:00,
2013-01-02 15:21:00,33.4,16.3,29.80,NNW,335,0.0,7.0,49,0.00,,,0.00,74,WeatherCatV1.12B45,2013-01-02 20:21:00,
2013-01-02 15:26:00,33.3,16.7,29.81,NW,314,5.0,11.0,50,0.00,,,0.00,86,WeatherCatV1.12B45,2013-01-02 20:26:00,
2013-01-02 15:31:00,33.2,17.1,29.81,NW,313,2.0,7.0,51,0.00,,,0.00,102,WeatherCatV1.12B45,2013-01-02 20:31:00,
2013-01-02 15:36:00,33.2,16.6,29.81,NNE,16,4.0,10.0,50,0.00,,,0.00,102,WeatherCatV1.12B45,2013-01-02 20:36:00,
2013-01-02 15:41:00,33.0,15.9,29.82,NNE,14,3.0,7.0,49,0.00,,,0.00,100,WeatherCatV1.12B45,2013-01-02 20:41:00,
2013-01-02 15:46:00,33.0,16.4,29.82,North,5,4.0,6.0,50,0.00,,,0.00,100,WeatherCatV1.12B45,2013-01-02 20:46:00,
2013-01-02 15:51:00,33.1,16.0,29.82,NNW,329,1.0,4.0,49,0.00,,,0.00,88,WeatherCatV1.12B45,2013-01-02 20:51:00,
2013-01-02 15:56:00,33.1,16.5,29.81,NNW,328,2.0,6.0,50,0.00,,,0.00,72,WeatherCatV1.12B45,2013-01-02 20:56:00,
2013-01-02 16:01:00,33.1,16.0,29.82,WNW,289,3.0,6.0,49,0.00,,,0.00,76,WeatherCatV1.12B45,2013-01-02 21:01:00,
2013-01-02 16:06:00,33.0,16.4,29.82,NW,315,4.0,5.0,50,0.00,,,0.00,70,WeatherCatV1.12B45,2013-01-02 21:06:00,
2013-01-02 16:11:00,33.0,16.4,29.82,NNW,346,1.0,5.0,50,0.00,,,0.00,51,WeatherCatV1.12B45,2013-01-02 21:11:00,
2013-01-02 16:16:00,32.8,16.2,29.81,NNW,340,1.0,7.0,50,0.00,,,0.00,39,WeatherCatV1.12B45,2013-01-02 21:16:00,
2013-01-02 16:21:00,32.7,16.1,29.82,WSW,255,2.0,8.0,50,0.00,,,0.00,32,WeatherCatV1.12B45,2013-01-02 21:21:00,
2013-01-02 16:26:00,32.6,16.0,29.82,WNW,303,2.0,5.0,50,0.00,,,0.00,25,WeatherCatV1.12B45,2013-01-02 21:26:00,
2013-01-02 16:31:00,32.4,15.9,29.82,NW,306,4.0,6.0,50,0.00,,,0.00,19,WeatherCatV1.12B45,2013-01-02 21:31:00,
2013-01-02 16:36:00,32.3,15.8,29.83,NW,326,0.0,6.0,50,0.00,,,0.00,18,WeatherCatV1.12B45,2013-01-02 21:36:00,
2013-01-02 16:41:00,32.1,16.0,29.82,North,0,0.0,4.0,51,0.00,,,0.00,11,WeatherCatV1.12B45,2013-01-02 21:41:00,
2013-01-02 16:46:00,32.0,15.9,29.83,NNW,330,3.0,5.0,51,0.00,,,0.00,5,WeatherCatV1.12B45,2013-01-02 21:46:00,
2013-01-02 16:51:00,31.9,15.9,29.83,West,263,2.0,3.0,51,0.00,,,0.00,0,WeatherCatV1.12B45,2013-01-02 21:51:00,
2013-01-02 16:56:00,31.7,16.1,29.83,NNW,331,2.0,2.0,52,0.00,,,0.00,0,WeatherCatV1.12B45,2013-01-02 21:56:00,
2013-01-02 17:01:00,31.6,16.5,29.84,WSW,258,5.0,6.0,53,0.00,,,0.00,0,WeatherCatV1.12B45,2013-01-02 22:01:00,
2013-01-02 17:06:00,31.5,16.4,29.84,WSW,254,0.0,2.0,53,0.00,,,0.00,0,WeatherCatV1.12B45,2013-01-02 22:06:00,
2013-01-02 17:11:00,31.5,15.9,29.84,North,9,1.0,2.0,52,0.00,,,0.00,0,WeatherCatV1.12B45,2013-01-02 22:11:00,
2013-01-02 17:16:00,31.5,15.9,29.85,NW,321,0.0,3.0,52,0.00,,,0.00,0,WeatherCatV1.12B45,2013-01-02 22:16:00,
2013-01-02 17:21:00,31.5,15.9,29.85,WSW,257,3.0,4.0,52,0.00,,,0.00,0,WeatherCatV1.12B45,2013-01-02 22:21:00,
2013-01-02 17:26:00,31.5,15.9,29.85,West,271,0.0,2.0,52,0.00,,,0.00,0,WeatherCatV1.12B45,2013-01-02 22:26:00,
2013-01-02 17:31:00,31.4,16.3,29.85,NNW,336,3.0,5.0,53,0.00,,,0.00,0,WeatherCatV1.12B45,2013-01-02 22:31:00,
2013-01-02 17:36:00,31.4,16.3,29.85,NNW,348,0.0,2.0,53,0.00,,,0.00,0,WeatherCatV1.12B45,2013-01-02 22:36:00,
2013-01-02 17:41:00,31.4,16.3,29.85,North,355,1.0,1.0,53,0.00,,,0.00,0,WeatherCatV1.12B45,2013-01-02 22:41:00,
2013-01-02 17:46:00,31.3,16.2,29.85,North,355,0.0,0.0,53,0.00,,,0.00,0,WeatherCatV1.12B45,2013-01-02 22:46:00,
2013-01-02 17:51:00,31.1,16.0,29.86,North,355,0.0,1.0,53,0.00,,,0.00,0,WeatherCatV1.12B45,2013-01-02 22:51:00,
2013-01-02 17:56:00,30.9,16.2,29.85,North,355,0.0,0.0,54,0.00,,,0.00,0,WeatherCatV1.12B45,2013-01-02 22:56:00,
2013-01-02 18:01:00,30.5,16.3,29.85,North,355,0.0,0.0,55,0.00,,,0.00,0,WeatherCatV1.12B45,2013-01-02 23:01:00,
2013-01-02 18:06:00,30.3,16.1,29.86,North,355,0.0,0.0,55,0.00,,,0.00,0,WeatherCatV1.12B45,2013-01-02 23:06:00,
2013-01-02 18:11:00,30.4,16.2,29.86,North,355,0.0,0.0,55,0.00,,,0.00,0,WeatherCatV1.12B45,2013-01-02 23:11:00,
2013-01-02 18:16:00,30.2,16.4,29.86,North,355,0.0,0.0,56,0.00,,,0.00,0,WeatherCatV1.12B45,2013-01-02 23:16:00,
2013-01-02 18:21:00,29.7,16.8,29.87,North,355,0.0,0.0,58,0.00,,,0.00,0,WeatherCatV1.12B45,2013-01-02 23:21:00,
2013-01-02 18:26:00,29.3,16.8,29.87,North,355,0.0,0.0,59,0.00,,,0.00,0,WeatherCatV1.12B45,2013-01-02 23:26:00,
2013-01-02 18:31:00,28.9,16.4,29.87,North,355,0.0,0.0,59,0.00,,,0.00,0,WeatherCatV1.12B45,2013-01-02 23:31:00,
2013-01-02 18:36:00,28.9,16.8,29.87,North,355,0.0,0.0,60,0.00,,,0.00,0,WeatherCatV1.12B45,2013-01-02 23:36:00,
2013-01-02 18:41:00,28.6,18.0,29.87,North,355,0.0,0.0,64,0.00,,,0.00,0,WeatherCatV1.12B45,2013-01-02 23:41:00,
2013-01-02 18:46:00,29.1,17.0,29.87,North,355,0.0,1.0,60,0.00,,,0.00,0,WeatherCatV1.12B45,2013-01-02 23:46:00,
2013-01-02 18:51:00,29.3,17.2,29.87,North,355,0.0,0.0,60,0.00,,,0.00,0,WeatherCatV1.12B45,2013-01-02 23:51:00,
2013-01-02 18:56:00,29.1,17.0,29.87,North,355,0.0,0.0,60,0.00,,,0.00,0,WeatherCatV1.12B45,2013-01-02 23:56:00,
2013-01-02 19:01:00,28.9,16.8,29.87,North,355,0.0,0.0,60,0.00,,,0.00,0,WeatherCatV1.12B45,2013-01-03 00:01:00,
2013-01-02 19:06:00,28.6,17.3,29.87,North,355,0.0,0.0,62,0.00,,,0.00,0,WeatherCatV1.12B45,2013-01-03 00:06:00,
2013-01-02 19:11:00,28.4,17.8,29.87,North,355,0.0,0.0,64,0.00,,,0.00,0,WeatherCatV1.12B45,2013-01-03 00:11:00,
2013-01-02 19:16:00,28.2,18.0,29.87,North,355,0.0,0.0,65,0.00,,,0.00,0,WeatherCatV1.12B45,2013-01-03 00:16:00,
2013-01-02 19:21:00,28.0,18.1,29.87,North,355,0.0,0.0,66,0.00,,,0.00,0,WeatherCatV1.12B45,2013-01-03 00:21:00,
2013-01-02 19:26:00,27.8,18.6,29.88,North,355,0.0,0.0,68,0.00,,,0.00,0,WeatherCatV1.12B45,2013-01-03 00:26:00,
2013-01-02 19:31:00,27.4,18.6,29.88,North,355,0.0,0.0,69,0.00,,,0.00,0,WeatherCatV1.12B45,2013-01-03 00:31:00,
2013-01-02 19:32:00,27.3,18.5,29.88,North,355,0.0,0.0,69,0.00,,,0.00,0,WeatherCatV1.12B45,2013-01-03 00:32:00,
2013-01-02 19:37:00,27.0,18.5,29.87,North,355,0.0,0.0,70,0.00,,,0.00,0,WeatherCatV1.12B45,2013-01-03 00:37:00,
2013-01-02 19:42:00,27.1,17.3,29.87,North,355,0.0,0.0,66,0.00,,,0.00,0,WeatherCatV1.12B45,2013-01-03 00:42:00,
2013-01-02 19:47:00,27.5,18.7,29.87,North,355,0.0,0.0,69,0.00,,,0.00,0,WeatherCatV1.12B45,2013-01-03 00:47:00,
2013-01-02 19:52:00,27.2,19.1,29.87,North,355,0.0,0.0,71,0.00,,,0.00,0,WeatherCatV1.12B45,2013-01-03 00:52:00,
2013-01-02 19:57:00,27.0,18.9,29.87,North,355,0.0,0.0,71,0.00,,,0.00,0,WeatherCatV1.12B45,2013-01-03 00:57:00,
2013-01-02 20:02:00,26.9,18.8,29.87,North,355,0.0,0.0,71,0.00,,,0.00,0,WeatherCatV1.12B45,2013-01-03 01:02:00,
2013-01-02 20:07:00,26.8,19.0,29.87,North,355,0.0,1.0,72,0.00,,,0.00,0,WeatherCatV1.12B45,2013-01-03 01:07:00,
2013-01-02 20:12:00,26.5,19.0,29.87,North,355,0.0,0.0,73,0.00,,,0.00,0,WeatherCatV1.12B45,2013-01-03 01:12:00,
2013-01-02 20:17:00,26.1,19.0,29.88,North,355,0.0,0.0,74,0.00,,,0.00,0,WeatherCatV1.12B45,2013-01-03 01:17:00,
2013-01-02 20:22:00,25.9,18.5,29.88,North,355,0.0,0.0,73,0.00,,,0.00,0,WeatherCatV1.12B45,2013-01-03 01:22:00,
2013-01-02 20:27:00,25.9,18.5,29.88,North,355,0.0,0.0,73,0.00,,,0.00,0,WeatherCatV1.12B45,2013-01-03 01:27:00,
2013-01-02 20:32:00,25.8,18.7,29.88,North,355,0.0,0.0,74,0.00,,,0.00,0,WeatherCatV1.12B45,2013-01-03 01:32:00,
2013-01-02 20:37:00,25.6,18.5,29.88,North,355,0.0,0.0,74,0.00,,,0.00,0,WeatherCatV1.12B45,2013-01-03 01:37:00,
2013-01-02 20:42:00,25.4,18.9,29.89,North,355,0.0,0.0,76,0.00,,,0.00,0,WeatherCatV1.12B45,2013-01-03 01:42:00,
2013-01-02 20:47:00,25.2,18.7,29.88,North,355,0.0,0.0,76,0.00,,,0.00,0,WeatherCatV1.12B45,2013-01-03 01:47:00,
2013-01-02 20:52:00,25.2,18.4,29.89,North,355,0.0,0.0,75,0.00,,,0.00,0,WeatherCatV1.12B45,2013-01-03 01:52:00,
2013-01-02 20:57:00,25.1,18.9,29.88,North,355,0.0,0.0,77,0.00,,,0.00,0,WeatherCatV1.12B45,2013-01-03 01:57:00,
2013-01-02 21:02:00,25.1,18.6,29.88,North,355,0.0,0.0,76,0.00,,,0.00,0,WeatherCatV1.12B45,2013-01-03 02:02:00,
2013-01-02 21:07:00,25.1,18.6,29.89,North,355,0.0,0.0,76,0.00,,,0.00,0,WeatherCatV1.12B45,2013-01-03 02:07:00,
2013-01-02 21:12:00,25.4,18.6,29.89,North,355,0.0,0.0,75,0.00,,,0.00,0,WeatherCatV1.12B45,2013-01-03 02:12:00,
2013-01-02 21:17:00,25.5,18.7,29.89,North,355,0.0,0.0,75,0.00,,,0.00,0,WeatherCatV1.12B45,2013-01-03 02:17:00,
2013-01-02 21:22:00,25.8,18.7,29.89,North,355,0.0,0.0,74,0.00,,,0.00,0,WeatherCatV1.12B45,2013-01-03 02:22:00,
2013-01-02 21:27:00,25.8,19.0,29.89,North,355,0.0,0.0,75,0.00,,,0.00,0,WeatherCatV1.12B45,2013-01-03 02:27:00,
2013-01-02 21:32:00,26.3,19.2,29.89,North,355,0.0,0.0,74,0.00,,,0.00,0,WeatherCatV1.12B45,2013-01-03 02:32:00,
2013-01-02 21:37:00,26.6,18.8,29.90,North,355,0.0,0.0,72,0.00,,,0.00,0,WeatherCatV1.12B45,2013-01-03 02:37:00,
2013-01-02 21:42:00,26.6,18.8,29.90,North,355,0.0,0.0,72,0.00,,,0.00,0,WeatherCatV1.12B45,2013-01-03 02:42:00,
2013-01-02 21:47:00,26.6,18.8,29.90,North,355,0.0,0.0,72,0.00,,,0.00,0,WeatherCatV1.12B45,2013-01-03 02:47:00,
2013-01-02 21:52:00,26.8,18.7,29.89,NNW,346,0.0,0.0,71,0.00,,,0.00,0,WeatherCatV1.12B45,2013-01-03 02:52:00,
2013-01-02 21:57:00,27.0,18.9,29.90,NNW,346,0.0,0.0,71,0.00,,,0.00,0,WeatherCatV1.12B45,2013-01-03 02:57:00,
2013-01-02 22:02:00,27.1,19.0,29.90,NNW,346,0.0,0.0,71,0.00,,,0.00,0,WeatherCatV1.12B45,2013-01-03 03:02:00,
2013-01-02 22:07:00,27.1,19.0,29.90,NNW,346,0.0,0.0,71,0.00,,,0.00,0,WeatherCatV1.12B45,2013-01-03 03:07:00,
2013-01-02 22:12:00,27.0,19.2,29.90,NNW,346,0.0,0.0,72,0.00,,,0.00,0,WeatherCatV1.12B45,2013-01-03 03:12:00,
2013-01-02 22:17:00,26.9,19.4,29.90,NNW,346,0.0,0.0,73,0.00,,,0.00,0,WeatherCatV1.12B45,2013-01-03 03:17:00,
2013-01-02 22:22:00,26.8,19.0,29.90,NNW,346,0.0,0.0,72,0.00,,,0.00,0,WeatherCatV1.12B45,2013-01-03 03:22:00,
2013-01-02 22:27:00,26.8,19.0,29.90,NNW,336,0.0,0.0,72,0.00,,,0.00,0,WeatherCatV1.12B45,2013-01-03 03:27:00,
2013-01-02 22:32:00,26.9,19.1,29.91,NNW,336,0.0,0.0,72,0.00,,,0.00,0,WeatherCatV1.12B45,2013-01-03 03:32:00,
2013-01-02 22:37:00,26.9,19.1,29.91,NNW,336,0.0,0.0,72,0.00,,,0.00,0,WeatherCatV1.12B45,2013-01-03 03:37:00,
2013-01-02 22:42:00,26.8,18.7,29.91,NNW,336,0.0,0.0,71,0.00,,,0.00,0,WeatherCatV1.12B45,2013-01-03 03:42:00,
2013-01-02 22:47:00,26.6,18.8,29.91,NNW,336,0.0,0.0,72,0.00,,,0.00,0,WeatherCatV1.12B45,2013-01-03 03:47:00,
2013-01-02 22:52:00,26.6,18.8,29.92,NNW,336,0.0,0.0,72,0.00,,,0.00,0,WeatherCatV1.12B45,2013-01-03 03:52:00,
2013-01-02 22:57:00,26.6,18.5,29.92,WNW,294,1.0,1.0,71,0.00,,,0.00,0,WeatherCatV1.12B45,2013-01-03 03:57:00,
2013-01-02 23:02:00,26.7,18.6,29.92,WSW,257,0.0,0.0,71,0.00,,,0.00,0,WeatherCatV1.12B45,2013-01-03 04:02:00,
2013-01-02 23:07:00,26.7,18.6,29.92,WSW,257,0.0,0.0,71,0.00,,,0.00,0,WeatherCatV1.12B45,2013-01-03 04:07:00,
2013-01-02 23:12:00,26.7,18.6,29.92,WSW,257,0.0,1.0,71,0.00,,,0.00,0,WeatherCatV1.12B45,2013-01-03 04:12:00,
2013-01-02 23:17:00,26.6,18.5,29.92,WSW,257,0.0,1.0,71,0.00,,,0.00,0,WeatherCatV1.12B45,2013-01-03 04:17:00,
2013-01-02 23:22:00,26.6,18.5,29.92,WSW,257,0.0,1.0,71,0.00,,,0.00,0,WeatherCatV1.12B45,2013-01-03 04:22:00,
2013-01-02 23:27:00,26.6,18.5,29.92,WSW,256,1.0,2.0,71,0.00,,,0.00,0,WeatherCatV1.12B45,2013-01-03 04:27:00,
2013-01-02 23:32:00,26.6,18.5,29.93,WSW,256,1.0,2.0,71,0.00,,,0.00,0,WeatherCatV1.12B45,2013-01-03 04:32:00,
2013-01-02 23:37:00,26.7,18.6,29.93,WSW,254,1.0,2.0,71,0.00,,,0.00,0,WeatherCatV1.12B45,2013-01-03 04:37:00,
2013-01-02 23:42:00,26.7,18.6,29.92,West,261,0.0,1.0,71,0.00,,,0.00,0,WeatherCatV1.12B45,2013-01-03 04:42:00,
2013-01-02 23:47:00,26.7,18.6,29.93,West,261,0.0,2.0,71,0.00,,,0.00,0,WeatherCatV1.12B45,2013-01-03 04:47:00,
2013-01-02 23:52:00,26.7,18.3,29.93,West,259,0.0,1.0,70,0.00,,,0.00,0,WeatherCatV1.12B45,2013-01-03 04:52:00,
2013-01-02 23:57:00,26.7,18.3,29.93,West,261,0.0,1.0,70,0.00,,,0.00,0,WeatherCatV1.12B45,2013-01-03 04:57:00,